sensor_id;sensor_type;location;lat;lon;timestamp;temperature;humidity
52899;DHT22;38763;53.096;6.062;2023-05-10T00:02:06;12.80;99.90
52899;DHT22;38763;53.096;6.062;2023-05-10T00:04:32;12.90;99.90
52899;DHT22;38763;53.096;6.062;2023-05-10T00:06:58;12.90;99.90
52899;DHT22;38763;53.096;6.062;2023-05-10T00:09:23;12.80;99.90
52899;DHT22;38763;53.096;6.062;2023-05-10T00:11:49;12.80;99.90
52899;DHT22;38763;53.096;6.062;2023-05-10T00:14:15;12.80;99.90
52899;DHT22;38763;53.096;6.062;2023-05-10T00:16:41;12.80;99.90
52899;DHT22;38763;53.096;6.062;2023-05-10T00:19:06;12.80;99.90
52899;DHT22;38763;53.096;6.062;2023-05-10T00:21:32;12.70;99.90
52899;DHT22;38763;53.096;6.062;2023-05-10T00:23:59;12.80;99.90
52899;DHT22;38763;53.096;6.062;2023-05-10T00:26:25;12.70;99.90
52899;DHT22;38763;53.096;6.062;2023-05-10T00:28:51;12.70;99.90
52899;DHT22;38763;53.096;6.062;2023-05-10T00:31:16;12.70;99.90
52899;DHT22;38763;53.096;6.062;2023-05-10T00:33:42;12.70;99.90
52899;DHT22;38763;53.096;6.062;2023-05-10T00:36:08;12.70;99.90
52899;DHT22;38763;53.096;6.062;2023-05-10T00:38:34;12.70;99.90
52899;DHT22;38763;53.096;6.062;2023-05-10T00:40:59;12.70;99.90
52899;DHT22;38763;53.096;6.062;2023-05-10T00:43:25;12.70;99.90
52899;DHT22;38763;53.096;6.062;2023-05-10T00:45:51;12.70;99.90
52899;DHT22;38763;53.096;6.062;2023-05-10T00:48:16;12.60;99.90
52899;DHT22;38763;53.096;6.062;2023-05-10T00:50:42;12.60;99.90
52899;DHT22;38763;53.096;6.062;2023-05-10T00:53:08;12.60;99.90
52899;DHT22;38763;53.096;6.062;2023-05-10T00:55:34;12.60;99.90
52899;DHT22;38763;53.096;6.062;2023-05-10T00:58:00;12.70;99.90
52899;DHT22;38763;53.096;6.062;2023-05-10T01:00:27;12.70;99.90
52899;DHT22;38763;53.096;6.062;2023-05-10T01:02:53;12.70;99.90
52899;DHT22;38763;53.096;6.062;2023-05-10T01:05:19;12.70;99.90
52899;DHT22;38763;53.096;6.062;2023-05-10T01:07:45;12.70;99.90
52899;DHT22;38763;53.096;6.062;2023-05-10T01:10:10;12.60;99.90
52899;DHT22;38763;53.096;6.062;2023-05-10T01:12:39;12.70;99.90
52899;DHT22;38763;53.096;6.062;2023-05-10T01:15:07;12.60;99.90
52899;DHT22;38763;53.096;6.062;2023-05-10T01:17:33;12.70;99.90
52899;DHT22;38763;53.096;6.062;2023-05-10T01:20:00;12.70;99.90
52899;DHT22;38763;53.096;6.062;2023-05-10T01:22:39;12.70;99.90
52899;DHT22;38763;53.096;6.062;2023-05-10T01:33:52;12.70;99.90
52899;DHT22;38763;53.096;6.062;2023-05-10T01:36:40;12.60;99.90
52899;DHT22;38763;53.096;6.062;2023-05-10T01:41:52;12.60;99.90
52899;DHT22;38763;53.096;6.062;2023-05-10T01:44:42;12.60;99.90
52899;DHT22;38763;53.096;6.062;2023-05-10T01:47:26;12.60;99.90
52899;DHT22;38763;53.096;6.062;2023-05-10T01:49:56;12.70;99.90
52899;DHT22;38763;53.096;6.062;2023-05-10T01:52:28;12.70;99.90
52899;DHT22;38763;53.096;6.062;2023-05-10T01:55:00;12.60;99.90
52899;DHT22;38763;53.096;6.062;2023-05-10T01:57:31;12.50;99.90
52899;DHT22;38763;53.096;6.062;2023-05-10T01:59:58;12.50;99.90
52899;DHT22;38763;53.096;6.062;2023-05-10T02:02:25;12.60;99.90
52899;DHT22;38763;53.096;6.062;2023-05-10T02:04:53;12.50;99.90
52899;DHT22;38763;53.096;6.062;2023-05-10T02:07:20;12.60;99.90
52899;DHT22;38763;53.096;6.062;2023-05-10T02:09:47;12.50;99.90
52899;DHT22;38763;53.096;6.062;2023-05-10T02:12:13;12.50;99.90
52899;DHT22;38763;53.096;6.062;2023-05-10T02:14:41;12.50;99.90
52899;DHT22;38763;53.096;6.062;2023-05-10T02:17:08;12.50;99.90
52899;DHT22;38763;53.096;6.062;2023-05-10T02:19:35;12.50;99.90
52899;DHT22;38763;53.096;6.062;2023-05-10T02:22:03;12.60;99.90
52899;DHT22;38763;53.096;6.062;2023-05-10T02:24:29;12.40;99.90
52899;DHT22;38763;53.096;6.062;2023-05-10T02:26:57;12.60;99.90
52899;DHT22;38763;53.096;6.062;2023-05-10T02:29:25;12.60;99.90
52899;DHT22;38763;53.096;6.062;2023-05-10T02:31:53;12.60;99.90
52899;DHT22;38763;53.096;6.062;2023-05-10T02:34:21;12.50;99.90
52899;DHT22;38763;53.096;6.062;2023-05-10T02:36:47;12.50;99.90
52899;DHT22;38763;53.096;6.062;2023-05-10T02:39:14;12.40;99.90
52899;DHT22;38763;53.096;6.062;2023-05-10T02:41:41;12.50;99.90
52899;DHT22;38763;53.096;6.062;2023-05-10T02:44:08;12.50;99.90
52899;DHT22;38763;53.096;6.062;2023-05-10T02:46:35;12.50;99.90
52899;DHT22;38763;53.096;6.062;2023-05-10T02:49:02;12.50;99.90
52899;DHT22;38763;53.096;6.062;2023-05-10T02:51:31;12.50;99.90
52899;DHT22;38763;53.096;6.062;2023-05-10T02:53:57;12.50;99.90
52899;DHT22;38763;53.096;6.062;2023-05-10T02:56:33;12.50;99.90
52899;DHT22;38763;53.096;6.062;2023-05-10T02:58:59;12.50;99.90
52899;DHT22;38763;53.096;6.062;2023-05-10T03:01:25;12.40;99.90
52899;DHT22;38763;53.096;6.062;2023-05-10T03:03:51;12.50;99.90
52899;DHT22;38763;53.096;6.062;2023-05-10T03:06:16;12.50;99.90
52899;DHT22;38763;53.096;6.062;2023-05-10T03:08:43;12.50;99.90
52899;DHT22;38763;53.096;6.062;2023-05-10T03:14:13;12.50;99.90
52899;DHT22;38763;53.096;6.062;2023-05-10T03:16:47;12.50;99.90
52899;DHT22;38763;53.096;6.062;2023-05-10T03:19:24;12.40;99.90
52899;DHT22;38763;53.096;6.062;2023-05-10T03:21:53;12.40;99.90
52899;DHT22;38763;53.096;6.062;2023-05-10T03:24:21;12.50;99.90
52899;DHT22;38763;53.096;6.062;2023-05-10T03:26:49;12.50;99.90
52899;DHT22;38763;53.096;6.062;2023-05-10T03:29:16;12.40;99.90
52899;DHT22;38763;53.096;6.062;2023-05-10T03:31:42;12.50;99.90
52899;DHT22;38763;53.096;6.062;2023-05-10T03:34:08;12.40;99.90
52899;DHT22;38763;53.096;6.062;2023-05-10T03:36:34;12.50;99.90
52899;DHT22;38763;53.096;6.062;2023-05-10T03:38:59;12.50;99.90
52899;DHT22;38763;53.096;6.062;2023-05-10T03:41:25;12.50;99.90
52899;DHT22;38763;53.096;6.062;2023-05-10T03:43:51;12.50;99.90
52899;DHT22;38763;53.096;6.062;2023-05-10T03:46:17;12.40;99.90
52899;DHT22;38763;53.096;6.062;2023-05-10T03:48:43;12.50;99.90
52899;DHT22;38763;53.096;6.062;2023-05-10T03:51:08;12.60;99.90
52899;DHT22;38763;53.096;6.062;2023-05-10T03:53:34;12.50;99.90
52899;DHT22;38763;53.096;6.062;2023-05-10T03:56:00;12.50;99.90
52899;DHT22;38763;53.096;6.062;2023-05-10T03:58:25;12.50;99.90
52899;DHT22;38763;53.096;6.062;2023-05-10T04:00:51;12.50;99.90
52899;DHT22;38763;53.096;6.062;2023-05-10T04:03:17;12.50;99.90
52899;DHT22;38763;53.096;6.062;2023-05-10T04:05:43;12.50;99.90
52899;DHT22;38763;53.096;6.062;2023-05-10T04:08:09;12.40;99.90
52899;DHT22;38763;53.096;6.062;2023-05-10T04:10:34;12.50;99.90
52899;DHT22;38763;53.096;6.062;2023-05-10T04:13:00;12.50;99.90
52899;DHT22;38763;53.096;6.062;2023-05-10T04:15:26;12.50;99.90
52899;DHT22;38763;53.096;6.062;2023-05-10T04:17:52;12.40;99.90
52899;DHT22;38763;53.096;6.062;2023-05-10T04:20:17;12.40;99.90
52899;DHT22;38763;53.096;6.062;2023-05-10T04:22:43;12.40;99.90
52899;DHT22;38763;53.096;6.062;2023-05-10T04:25:09;12.40;99.90
52899;DHT22;38763;53.096;6.062;2023-05-10T04:27:34;12.50;99.90
52899;DHT22;38763;53.096;6.062;2023-05-10T04:30:00;12.40;99.90
52899;DHT22;38763;53.096;6.062;2023-05-10T04:32:26;12.40;99.90
52899;DHT22;38763;53.096;6.062;2023-05-10T04:34:52;12.40;99.90
52899;DHT22;38763;53.096;6.062;2023-05-10T04:37:18;12.30;99.90
52899;DHT22;38763;53.096;6.062;2023-05-10T04:39:44;12.30;99.90
52899;DHT22;38763;53.096;6.062;2023-05-10T04:42:09;12.30;99.90
52899;DHT22;38763;53.096;6.062;2023-05-10T04:44:35;12.30;99.90
52899;DHT22;38763;53.096;6.062;2023-05-10T04:47:01;12.30;99.90
52899;DHT22;38763;53.096;6.062;2023-05-10T04:49:29;12.30;99.90
52899;DHT22;38763;53.096;6.062;2023-05-10T04:51:55;12.20;99.90
52899;DHT22;38763;53.096;6.062;2023-05-10T04:54:20;12.30;99.90
52899;DHT22;38763;53.096;6.062;2023-05-10T04:56:46;12.20;99.90
52899;DHT22;38763;53.096;6.062;2023-05-10T04:59:12;12.30;99.90
52899;DHT22;38763;53.096;6.062;2023-05-10T05:01:37;12.20;99.90
52899;DHT22;38763;53.096;6.062;2023-05-10T05:04:03;12.30;99.90
52899;DHT22;38763;53.096;6.062;2023-05-10T05:06:29;12.40;99.90
52899;DHT22;38763;53.096;6.062;2023-05-10T05:08:55;12.30;99.90
52899;DHT22;38763;53.096;6.062;2023-05-10T05:11:20;12.30;99.90
52899;DHT22;38763;53.096;6.062;2023-05-10T05:13:47;12.30;99.90
52899;DHT22;38763;53.096;6.062;2023-05-10T05:16:13;12.40;99.90
52899;DHT22;38763;53.096;6.062;2023-05-10T05:18:38;12.30;99.90
52899;DHT22;38763;53.096;6.062;2023-05-10T05:21:14;12.30;99.90
52899;DHT22;38763;53.096;6.062;2023-05-10T05:23:40;12.30;99.90
52899;DHT22;38763;53.096;6.062;2023-05-10T05:26:06;12.40;99.90
52899;DHT22;38763;53.096;6.062;2023-05-10T05:28:31;12.40;99.90
52899;DHT22;38763;53.096;6.062;2023-05-10T05:30:59;12.40;99.90
52899;DHT22;38763;53.096;6.062;2023-05-10T05:33:24;12.40;99.90
52899;DHT22;38763;53.096;6.062;2023-05-10T05:35:50;12.30;99.90
52899;DHT22;38763;53.096;6.062;2023-05-10T05:38:16;12.40;99.90
52899;DHT22;38763;53.096;6.062;2023-05-10T05:40:42;12.40;99.90
52899;DHT22;38763;53.096;6.062;2023-05-10T05:43:08;12.30;99.90
52899;DHT22;38763;53.096;6.062;2023-05-10T05:45:34;12.30;99.90
52899;DHT22;38763;53.096;6.062;2023-05-10T05:48:00;12.50;99.90
52899;DHT22;38763;53.096;6.062;2023-05-10T05:50:25;12.30;99.90
52899;DHT22;38763;53.096;6.062;2023-05-10T05:52:51;12.40;99.90
52899;DHT22;38763;53.096;6.062;2023-05-10T05:55:16;12.40;99.90
52899;DHT22;38763;53.096;6.062;2023-05-10T05:57:42;12.40;99.90
52899;DHT22;38763;53.096;6.062;2023-05-10T06:00:08;12.40;99.90
52899;DHT22;38763;53.096;6.062;2023-05-10T06:02:34;12.40;99.90
52899;DHT22;38763;53.096;6.062;2023-05-10T06:05:00;12.40;99.90
52899;DHT22;38763;53.096;6.062;2023-05-10T06:07:25;12.40;99.90
52899;DHT22;38763;53.096;6.062;2023-05-10T06:09:51;12.40;99.90
52899;DHT22;38763;53.096;6.062;2023-05-10T06:12:16;12.50;99.90
52899;DHT22;38763;53.096;6.062;2023-05-10T06:14:42;12.50;99.90
52899;DHT22;38763;53.096;6.062;2023-05-10T06:17:08;12.40;99.90
52899;DHT22;38763;53.096;6.062;2023-05-10T06:19:33;12.40;99.90
52899;DHT22;38763;53.096;6.062;2023-05-10T06:21:59;12.50;99.90
52899;DHT22;38763;53.096;6.062;2023-05-10T06:24:25;12.40;99.90
52899;DHT22;38763;53.096;6.062;2023-05-10T06:26:50;12.50;99.90
52899;DHT22;38763;53.096;6.062;2023-05-10T06:29:16;12.50;99.90
52899;DHT22;38763;53.096;6.062;2023-05-10T06:31:42;12.50;99.90
52899;DHT22;38763;53.096;6.062;2023-05-10T06:34:07;12.60;99.90
52899;DHT22;38763;53.096;6.062;2023-05-10T06:36:33;12.60;99.90
52899;DHT22;38763;53.096;6.062;2023-05-10T06:38:59;12.60;99.90
52899;DHT22;38763;53.096;6.062;2023-05-10T06:41:25;12.50;99.90
52899;DHT22;38763;53.096;6.062;2023-05-10T06:43:50;12.60;99.90
52899;DHT22;38763;53.096;6.062;2023-05-10T06:46:16;12.60;99.90
52899;DHT22;38763;53.096;6.062;2023-05-10T06:48:41;12.70;99.90
52899;DHT22;38763;53.096;6.062;2023-05-10T06:51:07;12.70;99.90
52899;DHT22;38763;53.096;6.062;2023-05-10T06:53:33;12.60;99.90
52899;DHT22;38763;53.096;6.062;2023-05-10T06:55:58;12.60;99.90
52899;DHT22;38763;53.096;6.062;2023-05-10T06:58:24;12.60;99.90
52899;DHT22;38763;53.096;6.062;2023-05-10T07:00:50;12.60;99.90
52899;DHT22;38763;53.096;6.062;2023-05-10T07:03:16;12.50;99.90
52899;DHT22;38763;53.096;6.062;2023-05-10T07:05:41;12.60;99.90
52899;DHT22;38763;53.096;6.062;2023-05-10T07:08:07;12.60;99.90
52899;DHT22;38763;53.096;6.062;2023-05-10T07:10:33;12.60;99.90
52899;DHT22;38763;53.096;6.062;2023-05-10T07:12:59;12.60;99.90
52899;DHT22;38763;53.096;6.062;2023-05-10T07:15:26;12.60;99.90
52899;DHT22;38763;53.096;6.062;2023-05-10T07:17:52;12.50;99.90
52899;DHT22;38763;53.096;6.062;2023-05-10T07:20:18;12.60;99.90
52899;DHT22;38763;53.096;6.062;2023-05-10T07:22:43;12.70;99.90
52899;DHT22;38763;53.096;6.062;2023-05-10T07:25:09;12.60;99.90
52899;DHT22;38763;53.096;6.062;2023-05-10T07:27:35;12.60;99.90
52899;DHT22;38763;53.096;6.062;2023-05-10T07:30:00;12.60;99.90
52899;DHT22;38763;53.096;6.062;2023-05-10T07:32:26;12.60;99.90
52899;DHT22;38763;53.096;6.062;2023-05-10T07:34:52;12.60;99.90
52899;DHT22;38763;53.096;6.062;2023-05-10T07:37:18;12.60;99.90
52899;DHT22;38763;53.096;6.062;2023-05-10T07:39:43;12.60;99.90
52899;DHT22;38763;53.096;6.062;2023-05-10T07:42:09;12.60;99.90
52899;DHT22;38763;53.096;6.062;2023-05-10T07:44:35;12.60;99.90
52899;DHT22;38763;53.096;6.062;2023-05-10T07:47:00;12.60;99.90
52899;DHT22;38763;53.096;6.062;2023-05-10T07:49:26;12.60;99.90
52899;DHT22;38763;53.096;6.062;2023-05-10T07:51:51;12.50;99.90
52899;DHT22;38763;53.096;6.062;2023-05-10T07:54:17;12.60;99.90
52899;DHT22;38763;53.096;6.062;2023-05-10T07:56:43;12.60;99.90
52899;DHT22;38763;53.096;6.062;2023-05-10T07:59:16;12.60;99.90
52899;DHT22;38763;53.096;6.062;2023-05-10T08:01:42;12.70;99.90
52899;DHT22;38763;53.096;6.062;2023-05-10T08:04:08;12.60;99.90
52899;DHT22;38763;53.096;6.062;2023-05-10T08:06:34;12.70;99.90
52899;DHT22;38763;53.096;6.062;2023-05-10T08:09:00;12.70;99.90
52899;DHT22;38763;53.096;6.062;2023-05-10T08:11:26;12.70;99.90
52899;DHT22;38763;53.096;6.062;2023-05-10T08:13:53;12.80;99.90
52899;DHT22;38763;53.096;6.062;2023-05-10T08:16:19;12.80;99.90
52899;DHT22;38763;53.096;6.062;2023-05-10T08:18:46;12.90;99.90
52899;DHT22;38763;53.096;6.062;2023-05-10T08:21:13;12.80;99.90
52899;DHT22;38763;53.096;6.062;2023-05-10T08:23:39;12.80;99.90
52899;DHT22;38763;53.096;6.062;2023-05-10T08:26:05;12.90;99.90
52899;DHT22;38763;53.096;6.062;2023-05-10T08:28:31;12.90;99.90
52899;DHT22;38763;53.096;6.062;2023-05-10T08:30:56;12.90;99.90
52899;DHT22;38763;53.096;6.062;2023-05-10T08:33:22;13.00;99.90
52899;DHT22;38763;53.096;6.062;2023-05-10T08:35:48;12.90;99.90
52899;DHT22;38763;53.096;6.062;2023-05-10T08:38:13;13.00;99.90
52899;DHT22;38763;53.096;6.062;2023-05-10T08:40:43;13.10;99.90
52899;DHT22;38763;53.096;6.062;2023-05-10T08:43:11;13.20;99.90
52899;DHT22;38763;53.096;6.062;2023-05-10T08:45:39;13.30;99.90
52899;DHT22;38763;53.096;6.062;2023-05-10T08:48:09;13.50;99.90
52899;DHT22;38763;53.096;6.062;2023-05-10T08:50:41;13.50;99.90
52899;DHT22;38763;53.096;6.062;2023-05-10T08:53:11;13.70;99.90
52899;DHT22;38763;53.096;6.062;2023-05-10T08:55:38;13.70;99.90
52899;DHT22;38763;53.096;6.062;2023-05-10T08:58:07;13.60;99.90
52899;DHT22;38763;53.096;6.062;2023-05-10T09:00:33;13.70;99.90
52899;DHT22;38763;53.096;6.062;2023-05-10T09:02:59;13.90;99.90
52899;DHT22;38763;53.096;6.062;2023-05-10T09:05:25;13.90;99.90
52899;DHT22;38763;53.096;6.062;2023-05-10T09:07:52;13.90;99.90
52899;DHT22;38763;53.096;6.062;2023-05-10T09:10:19;13.90;99.90
52899;DHT22;38763;53.096;6.062;2023-05-10T09:12:45;13.70;99.90
52899;DHT22;38763;53.096;6.062;2023-05-10T09:15:14;13.80;99.90
52899;DHT22;38763;53.096;6.062;2023-05-10T09:17:41;13.90;99.90
52899;DHT22;38763;53.096;6.062;2023-05-10T09:20:07;14.10;99.90
52899;DHT22;38763;53.096;6.062;2023-05-10T09:22:34;14.20;99.90
52899;DHT22;38763;53.096;6.062;2023-05-10T09:27:33;14.20;99.90
52899;DHT22;38763;53.096;6.062;2023-05-10T09:29:58;14.30;99.90
52899;DHT22;38763;53.096;6.062;2023-05-10T09:35:08;14.30;99.90
52899;DHT22;38763;53.096;6.062;2023-05-10T09:37:34;14.30;99.90
52899;DHT22;38763;53.096;6.062;2023-05-10T09:40:00;14.30;99.90
52899;DHT22;38763;53.096;6.062;2023-05-10T09:42:26;14.50;99.90
52899;DHT22;38763;53.096;6.062;2023-05-10T09:44:51;14.50;99.90
52899;DHT22;38763;53.096;6.062;2023-05-10T09:47:17;14.30;99.90
52899;DHT22;38763;53.096;6.062;2023-05-10T09:49:50;14.40;99.90
52899;DHT22;38763;53.096;6.062;2023-05-10T09:52:16;14.50;99.90
52899;DHT22;38763;53.096;6.062;2023-05-10T09:54:52;14.40;99.90
52899;DHT22;38763;53.096;6.062;2023-05-10T09:57:22;14.40;99.90
52899;DHT22;38763;53.096;6.062;2023-05-10T09:59:48;14.50;99.90
52899;DHT22;38763;53.096;6.062;2023-05-10T10:02:14;14.60;99.90
52899;DHT22;38763;53.096;6.062;2023-05-10T10:04:41;14.70;99.90
52899;DHT22;38763;53.096;6.062;2023-05-10T10:07:07;14.80;99.90
52899;DHT22;38763;53.096;6.062;2023-05-10T10:09:34;14.80;99.90
52899;DHT22;38763;53.096;6.062;2023-05-10T10:12:01;14.60;99.90
52899;DHT22;38763;53.096;6.062;2023-05-10T10:14:28;14.50;99.90
52899;DHT22;38763;53.096;6.062;2023-05-10T10:16:54;14.50;99.90
52899;DHT22;38763;53.096;6.062;2023-05-10T10:19:20;14.40;99.90
52899;DHT22;38763;53.096;6.062;2023-05-10T10:21:47;14.60;99.90
52899;DHT22;38763;53.096;6.062;2023-05-10T10:24:13;14.60;99.90
52899;DHT22;38763;53.096;6.062;2023-05-10T10:26:38;14.70;99.90
52899;DHT22;38763;53.096;6.062;2023-05-10T10:29:10;14.80;99.90
52899;DHT22;38763;53.096;6.062;2023-05-10T10:31:46;14.90;99.90
52899;DHT22;38763;53.096;6.062;2023-05-10T10:34:29;15.00;99.90
52899;DHT22;38763;53.096;6.062;2023-05-10T10:36:57;15.00;99.90
52899;DHT22;38763;53.096;6.062;2023-05-10T10:39:23;15.00;99.90
52899;DHT22;38763;53.096;6.062;2023-05-10T10:41:55;15.00;99.90
52899;DHT22;38763;53.096;6.062;2023-05-10T10:47:02;15.00;99.90
52899;DHT22;38763;53.096;6.062;2023-05-10T10:50:16;15.00;99.90
52899;DHT22;38763;53.096;6.062;2023-05-10T10:52:25;14.90;99.90
52899;DHT22;38763;53.096;6.062;2023-05-10T11:07:59;14.70;99.90
52899;DHT22;38763;53.096;6.062;2023-05-10T11:10:26;14.60;99.90
52899;DHT22;38763;53.096;6.062;2023-05-10T11:13:06;14.50;99.90
52899;DHT22;38763;53.096;6.062;2023-05-10T11:15:33;14.60;99.90
52899;DHT22;38763;53.096;6.062;2023-05-10T11:17:59;14.70;99.90
52899;DHT22;38763;53.096;6.062;2023-05-10T11:20:28;14.80;99.90
52899;DHT22;38763;53.096;6.062;2023-05-10T11:23:11;14.70;99.90
52899;DHT22;38763;53.096;6.062;2023-05-10T11:25:45;14.50;99.90
52899;DHT22;38763;53.096;6.062;2023-05-10T11:28:16;14.50;99.90
52899;DHT22;38763;53.096;6.062;2023-05-10T11:30:43;14.50;99.90
52899;DHT22;38763;53.096;6.062;2023-05-10T11:33:10;14.60;99.90
52899;DHT22;38763;53.096;6.062;2023-05-10T11:35:40;14.50;99.90
52899;DHT22;38763;53.096;6.062;2023-05-10T11:38:07;14.60;99.90
52899;DHT22;38763;53.096;6.062;2023-05-10T11:40:34;14.60;99.90
52899;DHT22;38763;53.096;6.062;2023-05-10T11:43:00;14.60;99.90
52899;DHT22;38763;53.096;6.062;2023-05-10T11:45:26;14.60;99.90
52899;DHT22;38763;53.096;6.062;2023-05-10T11:47:53;14.60;99.90
52899;DHT22;38763;53.096;6.062;2023-05-10T11:50:19;14.80;99.90
52899;DHT22;38763;53.096;6.062;2023-05-10T11:52:44;14.80;99.90
52899;DHT22;38763;53.096;6.062;2023-05-10T11:55:10;14.70;99.90
52899;DHT22;38763;53.096;6.062;2023-05-10T11:57:37;14.80;99.90
52899;DHT22;38763;53.096;6.062;2023-05-10T12:00:04;15.00;99.90
52899;DHT22;38763;53.096;6.062;2023-05-10T12:02:30;15.00;99.90
52899;DHT22;38763;53.096;6.062;2023-05-10T12:04:56;15.10;99.90
52899;DHT22;38763;53.096;6.062;2023-05-10T12:07:22;15.00;99.90
52899;DHT22;38763;53.096;6.062;2023-05-10T12:12:46;15.10;99.90
52899;DHT22;38763;53.096;6.062;2023-05-10T12:15:22;15.10;99.90
52899;DHT22;38763;53.096;6.062;2023-05-10T12:17:49;14.90;99.90
52899;DHT22;38763;53.096;6.062;2023-05-10T12:20:21;14.90;99.90
52899;DHT22;38763;53.096;6.062;2023-05-10T12:22:50;14.90;99.90
52899;DHT22;38763;53.096;6.062;2023-05-10T12:25:17;14.90;99.90
52899;DHT22;38763;53.096;6.062;2023-05-10T12:27:54;15.00;99.90
52899;DHT22;38763;53.096;6.062;2023-05-10T12:30:25;15.00;99.90
52899;DHT22;38763;53.096;6.062;2023-05-10T12:32:52;15.10;99.90
52899;DHT22;38763;53.096;6.062;2023-05-10T12:35:17;15.10;99.90
52899;DHT22;38763;53.096;6.062;2023-05-10T12:37:47;15.30;99.90
52899;DHT22;38763;53.096;6.062;2023-05-10T12:40:13;15.60;99.90
52899;DHT22;38763;53.096;6.062;2023-05-10T12:42:40;15.70;99.90
52899;DHT22;38763;53.096;6.062;2023-05-10T12:45:07;15.70;99.90
52899;DHT22;38763;53.096;6.062;2023-05-10T12:47:34;15.90;99.90
52899;DHT22;38763;53.096;6.062;2023-05-10T12:50:00;16.00;99.90
52899;DHT22;38763;53.096;6.062;2023-05-10T12:52:27;16.00;99.90
52899;DHT22;38763;53.096;6.062;2023-05-10T12:54:53;16.20;99.90
52899;DHT22;38763;53.096;6.062;2023-05-10T12:57:20;16.20;99.90
52899;DHT22;38763;53.096;6.062;2023-05-10T12:59:46;16.30;99.90
52899;DHT22;38763;53.096;6.062;2023-05-10T13:02:11;16.30;99.90
52899;DHT22;38763;53.096;6.062;2023-05-10T13:04:37;16.50;99.90
52899;DHT22;38763;53.096;6.062;2023-05-10T13:07:08;16.40;99.90
52899;DHT22;38763;53.096;6.062;2023-05-10T13:09:33;16.50;99.90
52899;DHT22;38763;53.096;6.062;2023-05-10T13:11:59;16.60;99.90
52899;DHT22;38763;53.096;6.062;2023-05-10T13:14:25;16.50;99.90
52899;DHT22;38763;53.096;6.062;2023-05-10T13:16:50;16.60;99.90
52899;DHT22;38763;53.096;6.062;2023-05-10T13:19:16;16.60;99.90
52899;DHT22;38763;53.096;6.062;2023-05-10T13:21:43;16.60;99.90
52899;DHT22;38763;53.096;6.062;2023-05-10T13:24:10;16.80;99.90
52899;DHT22;38763;53.096;6.062;2023-05-10T13:26:36;16.80;99.90
52899;DHT22;38763;53.096;6.062;2023-05-10T13:29:02;16.80;99.90
52899;DHT22;38763;53.096;6.062;2023-05-10T13:31:28;16.70;99.90
52899;DHT22;38763;53.096;6.062;2023-05-10T13:33:54;16.60;99.90
52899;DHT22;38763;53.096;6.062;2023-05-10T13:36:19;16.60;99.90
52899;DHT22;38763;53.096;6.062;2023-05-10T13:38:45;16.60;99.90
52899;DHT22;38763;53.096;6.062;2023-05-10T13:41:11;16.70;99.90
52899;DHT22;38763;53.096;6.062;2023-05-10T13:43:36;16.70;99.90
52899;DHT22;38763;53.096;6.062;2023-05-10T13:46:02;16.60;99.90
52899;DHT22;38763;53.096;6.062;2023-05-10T13:48:28;16.60;99.90
52899;DHT22;38763;53.096;6.062;2023-05-10T13:50:54;16.40;99.90
52899;DHT22;38763;53.096;6.062;2023-05-10T13:53:20;16.40;99.90
52899;DHT22;38763;53.096;6.062;2023-05-10T13:55:46;16.40;99.90
52899;DHT22;38763;53.096;6.062;2023-05-10T13:58:12;16.40;99.90
52899;DHT22;38763;53.096;6.062;2023-05-10T14:00:38;16.40;99.90
52899;DHT22;38763;53.096;6.062;2023-05-10T14:03:03;16.50;99.90
52899;DHT22;38763;53.096;6.062;2023-05-10T14:05:30;16.50;99.90
52899;DHT22;38763;53.096;6.062;2023-05-10T14:07:56;16.30;99.90
52899;DHT22;38763;53.096;6.062;2023-05-10T14:10:22;16.40;99.90
52899;DHT22;38763;53.096;6.062;2023-05-10T14:12:48;16.40;99.90
52899;DHT22;38763;53.096;6.062;2023-05-10T14:15:13;16.30;99.90
52899;DHT22;38763;53.096;6.062;2023-05-10T14:17:39;16.30;99.90
52899;DHT22;38763;53.096;6.062;2023-05-10T14:20:05;16.30;99.90
52899;DHT22;38763;53.096;6.062;2023-05-10T14:22:31;16.30;99.90
52899;DHT22;38763;53.096;6.062;2023-05-10T14:24:56;16.50;99.90
52899;DHT22;38763;53.096;6.062;2023-05-10T14:27:22;16.50;99.90
52899;DHT22;38763;53.096;6.062;2023-05-10T14:29:48;16.60;99.90
52899;DHT22;38763;53.096;6.062;2023-05-10T14:32:13;16.60;99.90
52899;DHT22;38763;53.096;6.062;2023-05-10T14:34:39;16.70;99.90
52899;DHT22;38763;53.096;6.062;2023-05-10T14:37:05;16.70;99.90
52899;DHT22;38763;53.096;6.062;2023-05-10T14:39:31;16.60;99.90
52899;DHT22;38763;53.096;6.062;2023-05-10T14:41:57;16.60;99.90
52899;DHT22;38763;53.096;6.062;2023-05-10T14:44:22;16.50;99.90
52899;DHT22;38763;53.096;6.062;2023-05-10T14:46:49;16.60;99.90
52899;DHT22;38763;53.096;6.062;2023-05-10T14:49:15;16.50;99.90
52899;DHT22;38763;53.096;6.062;2023-05-10T14:51:40;16.50;99.90
52899;DHT22;38763;53.096;6.062;2023-05-10T14:54:06;16.30;99.90
52899;DHT22;38763;53.096;6.062;2023-05-10T14:56:32;16.30;99.90
52899;DHT22;38763;53.096;6.062;2023-05-10T14:58:57;16.20;99.90
52899;DHT22;38763;53.096;6.062;2023-05-10T15:01:24;16.20;99.90
52899;DHT22;38763;53.096;6.062;2023-05-10T15:03:50;16.10;99.90
52899;DHT22;38763;53.096;6.062;2023-05-10T15:06:16;16.10;99.90
52899;DHT22;38763;53.096;6.062;2023-05-10T15:08:42;16.10;99.90
52899;DHT22;38763;53.096;6.062;2023-05-10T15:11:08;16.10;99.90
52899;DHT22;38763;53.096;6.062;2023-05-10T15:13:34;16.10;99.90
52899;DHT22;38763;53.096;6.062;2023-05-10T15:15:59;15.90;99.90
52899;DHT22;38763;53.096;6.062;2023-05-10T15:18:25;15.70;99.90
52899;DHT22;38763;53.096;6.062;2023-05-10T15:20:51;15.70;99.90
52899;DHT22;38763;53.096;6.062;2023-05-10T15:23:16;15.60;99.90
52899;DHT22;38763;53.096;6.062;2023-05-10T15:25:42;15.60;99.90
52899;DHT22;38763;53.096;6.062;2023-05-10T15:28:08;15.60;99.90
52899;DHT22;38763;53.096;6.062;2023-05-10T15:30:33;15.70;99.90
52899;DHT22;38763;53.096;6.062;2023-05-10T15:32:59;15.70;99.90
52899;DHT22;38763;53.096;6.062;2023-05-10T15:35:26;15.70;99.90
52899;DHT22;38763;53.096;6.062;2023-05-10T15:37:51;15.70;99.90
52899;DHT22;38763;53.096;6.062;2023-05-10T15:40:17;15.70;99.90
52899;DHT22;38763;53.096;6.062;2023-05-10T15:42:43;15.60;99.90
52899;DHT22;38763;53.096;6.062;2023-05-10T15:45:09;15.70;99.90
52899;DHT22;38763;53.096;6.062;2023-05-10T15:47:36;15.50;99.90
52899;DHT22;38763;53.096;6.062;2023-05-10T15:50:01;15.50;99.90
52899;DHT22;38763;53.096;6.062;2023-05-10T15:52:28;15.30;99.90
52899;DHT22;38763;53.096;6.062;2023-05-10T15:54:53;15.30;99.90
52899;DHT22;38763;53.096;6.062;2023-05-10T15:57:19;15.30;99.90
52899;DHT22;38763;53.096;6.062;2023-05-10T15:59:45;15.10;99.90
52899;DHT22;38763;53.096;6.062;2023-05-10T16:02:10;15.20;99.90
52899;DHT22;38763;53.096;6.062;2023-05-10T16:04:36;15.20;99.90
52899;DHT22;38763;53.096;6.062;2023-05-10T16:07:03;15.20;99.90